createdAt,value
2017-08-06T00:00:21.995Z,1013.2
2017-08-06T00:01:21.974Z,1013.15
2017-08-06T00:02:21.953Z,1013.19
2017-08-06T00:03:21.932Z,1013.19
2017-08-06T00:04:21.911Z,1013.18
2017-08-06T00:05:21.888Z,1013.2
2017-08-06T00:06:21.866Z,1013.19
2017-08-06T00:07:21.848Z,1013.19
2017-08-06T00:08:21.821Z,1013.2
2017-08-06T00:09:21.806Z,1013.23
2017-08-06T00:10:21.781Z,1013.22
2017-08-06T00:11:21.758Z,1013.22
2017-08-06T00:12:21.737Z,1013.31
2017-08-06T00:13:21.715Z,1013.3
2017-08-06T00:14:21.692Z,1013.29
2017-08-06T00:15:21.671Z,1013.34
2017-08-06T00:16:21.650Z,1013.23
2017-08-06T00:17:21.628Z,1013.27
2017-08-06T00:18:21.607Z,1013.27
2017-08-06T00:19:21.594Z,1013.29
2017-08-06T00:20:21.566Z,1013.35
2017-08-06T00:21:21.589Z,1013.36
2017-08-06T00:22:21.519Z,1013.36
2017-08-06T00:23:21.499Z,1013.38
2017-08-06T00:24:21.479Z,1013.36
2017-08-06T00:25:21.457Z,1013.39
2017-08-06T00:26:21.435Z,1013.39
2017-08-06T00:27:21.412Z,1013.45
2017-08-06T00:28:21.396Z,1013.42
2017-08-06T00:29:21.373Z,1013.45
2017-08-06T00:30:21.347Z,1013.5
2017-08-06T00:31:21.326Z,1013.47
2017-08-06T00:32:21.307Z,1013.48
2017-08-06T00:33:21.280Z,1013.5
2017-08-06T00:34:21.262Z,1013.5
2017-08-06T00:35:21.243Z,1013.51
2017-08-06T00:36:21.220Z,1013.49
2017-08-06T00:37:21.198Z,1013.54
2017-08-06T00:38:21.179Z,1013.54
2017-08-06T00:39:21.151Z,1013.58
2017-08-06T00:40:21.134Z,1013.57
2017-08-06T00:41:21.111Z,1013.58
2017-08-06T00:42:21.096Z,1013.58
2017-08-06T00:43:21.070Z,1013.6
2017-08-06T00:44:21.046Z,1013.56
2017-08-06T00:45:21.237Z,1013.57
2017-08-06T00:46:21.003Z,1013.61
2017-08-06T00:47:20.982Z,1013.61
2017-08-06T00:48:20.960Z,1013.62
2017-08-06T00:50:20.917Z,1013.55
2017-08-06T00:51:20.901Z,1013.59
2017-08-06T00:52:20.886Z,1013.56
2017-08-06T00:53:20.857Z,1013.57
2017-08-06T00:54:20.832Z,1013.63
2017-08-06T00:55:20.812Z,1013.64
2017-08-06T00:56:20.787Z,1013.63
2017-08-06T00:57:20.768Z,1013.67
2017-08-06T00:58:20.748Z,1013.62
2017-08-06T00:59:20.721Z,1013.65
2017-08-06T01:00:20.700Z,1013.64
2017-08-06T01:01:20.679Z,1013.64
2017-08-06T01:02:20.658Z,1013.64
2017-08-06T01:03:20.636Z,1013.63
2017-08-06T01:04:20.612Z,1013.65
2017-08-06T01:05:20.592Z,1013.67
2017-08-06T01:06:20.567Z,1013.74
2017-08-06T01:07:20.548Z,1013.69
2017-08-06T01:08:20.526Z,1013.71
2017-08-06T01:09:20.507Z,1013.72
2017-08-06T01:10:20.482Z,1013.75
2017-08-06T01:11:20.465Z,1013.75
2017-08-06T01:12:20.444Z,1013.72
2017-08-06T01:13:20.418Z,1013.75
2017-08-06T01:14:20.395Z,1013.77
2017-08-06T01:15:20.374Z,1013.76
2017-08-06T01:16:20.350Z,1013.78
2017-08-06T01:17:20.341Z,1013.79
2017-08-06T01:18:20.309Z,1013.81
2017-08-06T01:19:20.289Z,1013.81
2017-08-06T01:20:20.264Z,1013.8
2017-08-06T01:21:20.242Z,1013.84
2017-08-06T01:22:20.221Z,1013.86
2017-08-06T01:23:20.200Z,1013.84
2017-08-06T01:24:20.177Z,1013.82
2017-08-06T01:25:20.152Z,1013.8
2017-08-06T01:26:20.131Z,1013.78
2017-08-06T01:27:20.111Z,1013.8
2017-08-06T01:28:20.088Z,1013.79
2017-08-06T01:29:20.070Z,1013.8
2017-08-06T01:30:20.051Z,1013.84
2017-08-06T01:31:20.024Z,1013.83
2017-08-06T01:32:20.017Z,1013.86
2017-08-06T01:33:19.980Z,1013.86
2017-08-06T01:34:19.958Z,1013.84
2017-08-06T01:35:19.937Z,1013.82
2017-08-06T01:36:19.913Z,1013.89
2017-08-06T01:37:19.892Z,1013.9
2017-08-06T01:38:19.874Z,1013.92
2017-08-06T01:39:19.849Z,1013.91
2017-08-06T01:40:19.830Z,1013.93
2017-08-06T01:41:19.806Z,1013.91
2017-08-06T01:42:19.787Z,1013.87
2017-08-06T01:43:19.766Z,1013.87
2017-08-06T01:44:19.943Z,1013.89
2017-08-06T01:45:19.717Z,1013.9
2017-08-06T01:46:19.696Z,1013.93
2017-08-06T01:47:19.675Z,1013.96
2017-08-06T01:48:19.653Z,1013.92
2017-08-06T01:49:19.633Z,1013.93
2017-08-06T01:50:19.607Z,1013.95
2017-08-06T01:51:19.584Z,1013.96
2017-08-06T01:52:19.564Z,1013.95
2017-08-06T01:53:19.543Z,1013.95
2017-08-06T01:54:19.520Z,1014.01
2017-08-06T01:55:19.498Z,1013.95
2017-08-06T01:56:19.478Z,1013.98
2017-08-06T01:57:19.458Z,1013.98
2017-08-06T01:58:19.432Z,1013.99
2017-08-06T01:59:19.414Z,1013.97
2017-08-06T02:00:19.393Z,1014
2017-08-06T02:01:19.368Z,1014.05
2017-08-06T02:02:19.343Z,1014.03
2017-08-06T02:03:19.323Z,1014.01
2017-08-06T02:04:19.301Z,1014.07
2017-08-06T02:05:19.281Z,1014.06
2017-08-06T02:06:19.257Z,1014.06
2017-08-06T02:07:19.236Z,1014.11
2017-08-06T02:08:19.217Z,1014.11
2017-08-06T02:09:19.189Z,1014.1
2017-08-06T02:10:19.171Z,1014.12
2017-08-06T02:11:19.146Z,1014.1
2017-08-06T02:12:19.124Z,1014.13
2017-08-06T02:13:19.106Z,1014.15
2017-08-06T02:14:19.082Z,1014.12
2017-08-06T02:15:19.065Z,1014.17
2017-08-06T02:16:19.036Z,1014.17
2017-08-06T02:17:19.014Z,1014.15
2017-08-06T02:18:18.992Z,1014.19
2017-08-06T02:19:18.970Z,1014.2
2017-08-06T02:20:18.949Z,1014.21
2017-08-06T02:21:18.928Z,1014.22
2017-08-06T02:22:18.906Z,1014.27
2017-08-06T02:23:18.883Z,1014.25
2017-08-06T02:24:18.863Z,1014.26
2017-08-06T02:25:18.840Z,1014.3
2017-08-06T02:26:18.818Z,1014.29
2017-08-06T02:27:18.798Z,1014.25
2017-08-06T02:28:18.771Z,1014.27
2017-08-06T02:29:18.750Z,1014.3
2017-08-06T02:30:18.737Z,1014.27
2017-08-06T02:31:18.705Z,1014.3
2017-08-06T02:32:18.684Z,1014.26
2017-08-06T02:33:18.664Z,1014.2
2017-08-06T02:34:18.640Z,1014.24
2017-08-06T02:35:18.618Z,1014.27
2017-08-06T02:36:18.595Z,1014.24
2017-08-06T02:37:18.574Z,1014.25
2017-08-06T02:38:18.551Z,1014.36
2017-08-06T02:39:18.530Z,1014.25
2017-08-06T02:40:18.525Z,1014.33
2017-08-06T02:41:18.481Z,1014.28
2017-08-06T02:42:18.464Z,1014.32
2017-08-06T02:43:18.443Z,1014.33
2017-08-06T02:44:18.420Z,1014.35
2017-08-06T02:45:18.398Z,1014.32
2017-08-06T02:46:18.375Z,1014.36
2017-08-06T02:47:18.368Z,1014.4
2017-08-06T02:48:18.330Z,1014.41
2017-08-06T02:49:18.309Z,1014.43
2017-08-06T02:50:18.286Z,1014.43
2017-08-06T02:51:18.265Z,1014.4
2017-08-06T02:52:18.241Z,1014.44
2017-08-06T02:53:18.220Z,1014.41
2017-08-06T02:54:18.249Z,1014.4
2017-08-06T02:55:18.380Z,1014.42
2017-08-06T02:56:18.153Z,1014.4
2017-08-06T02:57:18.131Z,1014.4
2017-08-06T02:58:18.110Z,1014.38
2017-08-06T02:59:18.089Z,1014.43
2017-08-06T03:00:18.066Z,1014.43
2017-08-06T03:01:18.045Z,1014.39
2017-08-06T03:02:18.021Z,1014.42
2017-08-06T03:03:17.998Z,1014.42
2017-08-06T03:04:17.976Z,1014.46
2017-08-06T03:05:17.956Z,1014.46
2017-08-06T03:06:17.932Z,1014.5
2017-08-06T03:07:17.912Z,1014.53
2017-08-06T03:08:17.888Z,1014.56
2017-08-06T03:09:17.867Z,1014.55
2017-08-06T03:10:17.846Z,1014.59
2017-08-06T03:11:17.826Z,1014.57
2017-08-06T03:12:17.801Z,1014.53
2017-08-06T03:13:17.780Z,1014.54
2017-08-06T03:14:17.757Z,1014.52
2017-08-06T03:15:17.736Z,1014.55
2017-08-06T03:16:17.713Z,1014.56
2017-08-06T03:17:17.691Z,1014.6
2017-08-06T03:18:17.668Z,1014.61
2017-08-06T03:19:17.647Z,1014.59
2017-08-06T03:20:17.624Z,1014.63
2017-08-06T03:21:17.602Z,1014.63
2017-08-06T03:22:17.583Z,1014.62
2017-08-06T03:23:17.557Z,1014.65
2017-08-06T03:24:17.535Z,1014.64
2017-08-06T03:25:17.512Z,1014.61
2017-08-06T03:26:17.490Z,1014.62
2017-08-06T03:27:17.470Z,1014.66
2017-08-06T03:28:17.457Z,1014.62
2017-08-06T03:29:17.428Z,1014.63
2017-08-06T03:30:17.404Z,1014.66
2017-08-06T03:31:17.380Z,1014.67
2017-08-06T03:32:17.356Z,1014.7
2017-08-06T03:33:17.336Z,1014.71
2017-08-06T03:34:17.318Z,1014.73
2017-08-06T03:35:17.291Z,1014.76
2017-08-06T03:36:17.270Z,1014.74
2017-08-06T03:37:17.250Z,1014.77
2017-08-06T03:38:17.228Z,1014.7
2017-08-06T03:39:17.202Z,1014.74
2017-08-06T03:40:17.185Z,1014.82
2017-08-06T03:41:17.157Z,1014.77
2017-08-06T03:42:17.137Z,1014.78
2017-08-06T03:43:17.113Z,1014.74
2017-08-06T03:44:17.092Z,1014.73
2017-08-06T03:45:17.071Z,1014.76
2017-08-06T03:46:17.048Z,1014.76
2017-08-06T03:47:17.024Z,1014.76
2017-08-06T03:48:17.002Z,1014.78
2017-08-06T03:49:16.981Z,1014.76
2017-08-06T03:50:16.959Z,1014.75
2017-08-06T03:51:16.940Z,1014.82
2017-08-06T03:52:16.915Z,1014.77
2017-08-06T03:53:16.944Z,1014.82
2017-08-06T03:54:16.869Z,1014.79
2017-08-06T03:55:16.848Z,1014.8
2017-08-06T03:56:16.825Z,1014.86
2017-08-06T03:57:16.805Z,1014.91
2017-08-06T03:58:16.781Z,1014.88
2017-08-06T03:59:16.762Z,1014.92
2017-08-06T04:00:16.738Z,1014.89
2017-08-06T04:01:16.716Z,1014.86
2017-08-06T04:02:16.693Z,1014.92
2017-08-06T04:03:16.669Z,1014.88
2017-08-06T04:04:16.650Z,1014.89
2017-08-06T04:05:16.624Z,1014.94
2017-08-06T04:06:16.619Z,1014.93
2017-08-06T04:07:16.580Z,1014.93
2017-08-06T04:08:16.559Z,1014.95
2017-08-06T04:09:16.536Z,1014.94
2017-08-06T04:10:16.519Z,1014.9
2017-08-06T04:11:16.497Z,1014.93
2017-08-06T04:12:16.470Z,1014.97
2017-08-06T04:13:16.447Z,1014.94
2017-08-06T04:14:16.424Z,1014.97
2017-08-06T04:15:16.403Z,1014.95
2017-08-06T04:16:16.380Z,1015
2017-08-06T04:17:16.360Z,1015.05
2017-08-06T04:18:16.341Z,1015.02
2017-08-06T04:19:16.314Z,1015.05
2017-08-06T04:20:16.290Z,1015.05
2017-08-06T04:21:16.270Z,1015.05
2017-08-06T04:22:16.255Z,1015.09
2017-08-06T04:23:16.225Z,1015.07
2017-08-06T04:24:16.202Z,1015.04
2017-08-06T04:25:16.179Z,1015.09
2017-08-06T04:26:16.157Z,1015.09
2017-08-06T04:27:16.134Z,1015.09
2017-08-06T04:28:16.112Z,1015.09
2017-08-06T04:29:16.092Z,1015.1
2017-08-06T04:30:16.088Z,1015.15
2017-08-06T04:31:16.048Z,1015.2
2017-08-06T04:32:16.026Z,1015.15
2017-08-06T04:33:16.007Z,1015.17
2017-08-06T04:34:15.981Z,1015.2
2017-08-06T04:35:15.962Z,1015.16
2017-08-06T04:36:15.937Z,1015.17
2017-08-06T04:37:15.916Z,1015.18
2017-08-06T04:38:15.892Z,1015.15
2017-08-06T04:39:15.870Z,1015.17
2017-08-06T04:40:15.850Z,1015.15
2017-08-06T04:41:15.829Z,1015.17
2017-08-06T04:42:15.804Z,1015.13
2017-08-06T04:43:15.784Z,1015.13
2017-08-06T04:44:15.765Z,1015.18
2017-08-06T04:45:15.746Z,1015.14
2017-08-06T04:46:15.720Z,1015.18
2017-08-06T04:47:15.705Z,1015.15
2017-08-06T04:48:15.728Z,1015.18
2017-08-06T04:49:15.657Z,1015.18
2017-08-06T04:50:15.636Z,1015.23
2017-08-06T04:51:15.618Z,1015.25
2017-08-06T04:52:15.594Z,1015.21
2017-08-06T04:53:15.573Z,1015.19
2017-08-06T04:54:15.550Z,1015.2
2017-08-06T04:55:15.532Z,1015.17
2017-08-06T04:56:15.509Z,1015.18
2017-08-06T04:57:15.488Z,1015.2
2017-08-06T04:58:15.468Z,1015.21
2017-08-06T04:59:15.461Z,1015.24
2017-08-06T05:00:15.425Z,1015.23
2017-08-06T05:01:15.405Z,1015.24
2017-08-06T05:02:15.389Z,1015.24
2017-08-06T05:03:15.362Z,1015.22
2017-08-06T05:04:15.343Z,1015.26
2017-08-06T05:05:15.322Z,1015.26
2017-08-06T05:06:15.303Z,1015.31
2017-08-06T05:07:15.281Z,1015.34
2017-08-06T05:08:15.267Z,1015.31
2017-08-06T05:09:15.241Z,1015.35
2017-08-06T05:10:15.222Z,1015.32
2017-08-06T05:11:15.203Z,1015.29
2017-08-06T05:12:15.183Z,1015.3
2017-08-06T05:13:15.164Z,1015.29
2017-08-06T05:14:15.143Z,1015.3
2017-08-06T05:15:15.122Z,1015.36
2017-08-06T05:16:15.100Z,1015.38
2017-08-06T05:17:15.131Z,1015.37
2017-08-06T05:18:15.060Z,1015.4
2017-08-06T05:19:15.040Z,1015.41
2017-08-06T05:20:15.022Z,1015.39
2017-08-06T05:21:15.003Z,1015.42
2017-08-06T05:22:14.983Z,1015.42
2017-08-06T05:23:14.962Z,1015.45
2017-08-06T05:24:14.942Z,1015.47
2017-08-06T05:25:14.926Z,1015.49
2017-08-06T05:26:14.904Z,1015.48
2017-08-06T05:27:14.884Z,1015.47
2017-08-06T05:28:14.866Z,1015.42
2017-08-06T05:29:14.846Z,1015.46
2017-08-06T05:30:14.827Z,1015.45
2017-08-06T05:31:14.808Z,1015.5
2017-08-06T05:32:14.789Z,1015.5
2017-08-06T05:33:14.773Z,1015.54
2017-08-06T05:34:14.754Z,1015.53
2017-08-06T05:35:14.733Z,1015.55
2017-08-06T05:36:14.714Z,1015.55
2017-08-06T05:37:14.695Z,1015.58
2017-08-06T05:38:14.680Z,1015.59
2017-08-06T05:39:14.663Z,1015.58
2017-08-06T05:40:14.641Z,1015.64
2017-08-06T05:41:14.622Z,1015.62
2017-08-06T05:42:14.609Z,1015.64
2017-08-06T05:43:14.585Z,1015.68
2017-08-06T05:44:14.565Z,1015.73
2017-08-06T05:45:14.549Z,1015.72
2017-08-06T05:46:14.536Z,1015.74
2017-08-06T05:47:14.515Z,1015.73
2017-08-06T05:48:14.502Z,1015.71
2017-08-06T05:49:14.476Z,1015.69
2017-08-06T05:50:14.459Z,1015.75
2017-08-06T05:51:14.446Z,1015.76
2017-08-06T05:52:14.425Z,1015.75
2017-08-06T05:53:14.405Z,1015.78
2017-08-06T05:54:14.388Z,1015.79
2017-08-06T05:55:14.373Z,1015.84
2017-08-06T05:56:14.354Z,1015.81
2017-08-06T05:57:14.340Z,1015.86
2017-08-06T05:58:14.369Z,1015.85
2017-08-06T05:59:14.302Z,1015.91
2017-08-06T06:00:14.285Z,1015.87
2017-08-06T06:01:14.272Z,1015.88
2017-08-06T06:02:14.503Z,1015.87
2017-08-06T06:03:14.239Z,1015.95
2017-08-06T06:04:14.222Z,1015.94
2017-08-06T06:05:14.201Z,1015.91
2017-08-06T06:06:14.186Z,1015.93
2017-08-06T06:07:14.168Z,1015.95
2017-08-06T06:08:14.151Z,1015.97
2017-08-06T06:09:14.141Z,1015.99
2017-08-06T06:10:14.117Z,1015.98
2017-08-06T06:11:14.100Z,1015.99
2017-08-06T06:12:14.086Z,1015.96
2017-08-06T06:13:14.069Z,1015.97
2017-08-06T06:14:14.056Z,1016.02
2017-08-06T06:15:14.041Z,1016.06
2017-08-06T06:16:14.022Z,1016.1
2017-08-06T06:17:14.003Z,1016.08
2017-08-06T06:18:13.989Z,1016.17
2017-08-06T06:19:13.976Z,1016.11
2017-08-06T06:20:13.958Z,1016.18
2017-08-06T06:21:13.947Z,1016.18
2017-08-06T06:22:13.929Z,1016.25
2017-08-06T06:23:13.918Z,1016.19
2017-08-06T06:24:13.898Z,1016.22
2017-08-06T06:25:13.883Z,1016.23
2017-08-06T06:26:13.870Z,1016.25
2017-08-06T06:27:13.852Z,1016.26
2017-08-06T06:28:13.838Z,1016.23
2017-08-06T06:29:13.881Z,1016.17
2017-08-06T06:30:13.807Z,1016.24
2017-08-06T06:31:13.790Z,1016.23
2017-08-06T06:32:13.779Z,1016.26
2017-08-06T06:33:13.767Z,1016.3
2017-08-06T06:34:13.750Z,1016.28
2017-08-06T06:35:13.735Z,1016.29
2017-08-06T06:36:13.723Z,1016.29
2017-08-06T06:37:13.707Z,1016.27
2017-08-06T06:38:13.692Z,1016.33
2017-08-06T06:39:13.678Z,1016.3
2017-08-06T06:40:13.665Z,1016.28
2017-08-06T06:41:13.650Z,1016.29
2017-08-06T06:42:13.638Z,1016.35
2017-08-06T06:43:13.621Z,1016.41
2017-08-06T06:44:13.609Z,1016.37
2017-08-06T06:45:13.592Z,1016.4
2017-08-06T06:46:13.577Z,1016.34
2017-08-06T06:47:13.562Z,1016.36
2017-08-06T06:48:13.551Z,1016.35
2017-08-06T06:49:13.533Z,1016.39
2017-08-06T06:50:13.519Z,1016.37
2017-08-06T06:51:13.505Z,1016.41
2017-08-06T06:52:13.492Z,1016.4
2017-08-06T06:53:13.477Z,1016.39
2017-08-06T06:54:13.465Z,1016.43
2017-08-06T06:55:13.450Z,1016.42
2017-08-06T06:56:13.439Z,1016.44
2017-08-06T06:57:13.425Z,1016.45
2017-08-06T06:58:13.411Z,1016.41
2017-08-06T06:59:13.399Z,1016.49
2017-08-06T07:00:13.386Z,1016.48
2017-08-06T07:01:13.372Z,1016.5
2017-08-06T07:02:13.360Z,1016.54
2017-08-06T07:03:13.349Z,1016.53
2017-08-06T07:04:13.333Z,1016.61
2017-08-06T07:05:13.381Z,1016.54
2017-08-06T07:06:13.312Z,1016.55
2017-08-06T07:07:13.296Z,1016.53
2017-08-06T07:08:13.292Z,1016.52
2017-08-06T07:09:13.272Z,1016.56
2017-08-06T07:10:13.264Z,1016.59
2017-08-06T07:11:13.249Z,1016.61
2017-08-06T07:12:13.236Z,1016.61
2017-08-06T07:13:13.225Z,1016.62
2017-08-06T07:14:13.213Z,1016.6
2017-08-06T07:15:13.200Z,1016.57
2017-08-06T07:16:13.188Z,1016.6
2017-08-06T07:17:13.177Z,1016.58
2017-08-06T07:18:13.167Z,1016.59
2017-08-06T07:19:13.154Z,1016.57
2017-08-06T07:20:13.147Z,1016.59
2017-08-06T07:21:13.139Z,1016.57
2017-08-06T07:22:13.124Z,1016.58
2017-08-06T07:23:13.111Z,1016.61
2017-08-06T07:24:13.099Z,1016.62
2017-08-06T07:25:13.091Z,1016.61
2017-08-06T07:26:13.082Z,1016.65
2017-08-06T07:27:13.068Z,1016.67
2017-08-06T07:28:13.057Z,1016.66
2017-08-06T07:29:13.053Z,1016.72
2017-08-06T07:30:13.039Z,1016.7
2017-08-06T07:31:13.025Z,1016.67
2017-08-06T07:32:13.018Z,1016.69
2017-08-06T07:33:13.005Z,1016.7
2017-08-06T07:34:12.996Z,1016.78
2017-08-06T07:35:12.987Z,1016.74
2017-08-06T07:36:12.977Z,1016.75
2017-08-06T07:37:12.964Z,1016.77
2017-08-06T07:38:12.954Z,1016.78
2017-08-06T07:39:12.943Z,1016.77
2017-08-06T07:40:12.932Z,1016.76
2017-08-06T07:41:12.923Z,1016.74
2017-08-06T07:42:12.913Z,1016.77
2017-08-06T07:43:12.901Z,1016.72
2017-08-06T07:44:12.943Z,1016.76
2017-08-06T07:45:12.882Z,1016.77
2017-08-06T07:46:12.869Z,1016.77
2017-08-06T07:47:12.860Z,1016.79
2017-08-06T07:48:12.848Z,1016.77
2017-08-06T07:49:12.843Z,1016.76
2017-08-06T07:50:12.833Z,1016.76
2017-08-06T07:51:12.873Z,1016.77
2017-08-06T07:52:12.811Z,1016.82
2017-08-06T07:53:12.801Z,1016.82
2017-08-06T07:54:12.790Z,1016.79
2017-08-06T07:55:12.784Z,1016.83
2017-08-06T07:56:12.774Z,1016.78
2017-08-06T07:57:12.766Z,1016.81
2017-08-06T07:58:12.755Z,1016.85
2017-08-06T07:59:12.745Z,1016.83
2017-08-06T08:00:12.737Z,1016.83
2017-08-06T08:01:12.730Z,1016.82
2017-08-06T08:02:12.719Z,1016.88
2017-08-06T08:03:12.711Z,1016.89
2017-08-06T08:04:12.699Z,1016.89
2017-08-06T08:05:12.689Z,1016.93
2017-08-06T08:06:12.681Z,1016.9
2017-08-06T08:07:12.669Z,1016.92
2017-08-06T08:08:12.659Z,1016.92
2017-08-06T08:09:12.649Z,1016.93
2017-08-06T08:10:12.641Z,1016.93
2017-08-06T08:11:12.634Z,1016.95
2017-08-06T08:12:12.622Z,1016.93
2017-08-06T08:13:12.611Z,1016.92
2017-08-06T08:14:12.602Z,1016.92
2017-08-06T08:15:12.591Z,1016.98
2017-08-06T08:16:12.582Z,1016.93
2017-08-06T08:17:12.572Z,1016.94
2017-08-06T08:18:12.563Z,1016.95
2017-08-06T08:19:12.554Z,1017.01
2017-08-06T08:20:12.547Z,1016.97
2017-08-06T08:21:12.536Z,1016.96
2017-08-06T08:22:12.578Z,1017
2017-08-06T08:23:12.518Z,1017
2017-08-06T08:24:12.510Z,1017.04
2017-08-06T08:25:12.500Z,1016.95
2017-08-06T08:26:12.492Z,1016.96
2017-08-06T08:27:12.487Z,1016.93
2017-08-06T08:28:12.474Z,1016.9
2017-08-06T08:29:12.468Z,1016.97
2017-08-06T08:30:12.463Z,1016.98
2017-08-06T08:31:12.453Z,1016.96
2017-08-06T08:32:12.444Z,1016.96
2017-08-06T08:33:12.436Z,1016.97
2017-08-06T08:34:12.428Z,1017
2017-08-06T08:35:12.425Z,1017
2017-08-06T08:36:12.414Z,1016.95
2017-08-06T08:37:12.407Z,1016.94
2017-08-06T08:38:12.399Z,1016.98
2017-08-06T08:39:12.405Z,1017.03
2017-08-06T08:40:12.385Z,1017.07
2017-08-06T08:41:12.376Z,1017.06
2017-08-06T08:42:12.369Z,1016.97
2017-08-06T08:43:12.364Z,1016.94
2017-08-06T08:44:12.358Z,1016.96
2017-08-06T08:45:12.343Z,1016.97
2017-08-06T08:46:12.337Z,1016.96
2017-08-06T08:47:12.328Z,1017
2017-08-06T08:48:12.321Z,1017.05
2017-08-06T08:49:12.311Z,1017.06
2017-08-06T08:50:12.302Z,1017.06
2017-08-06T08:51:12.294Z,1017.1
2017-08-06T08:52:12.285Z,1017.16
2017-08-06T08:53:12.276Z,1017.12
2017-08-06T08:54:12.310Z,1017.07
2017-08-06T08:55:12.252Z,1017.13
2017-08-06T08:56:12.242Z,1017.12
2017-08-06T08:57:12.234Z,1017.12
2017-08-06T08:58:12.224Z,1017.17
2017-08-06T08:59:12.212Z,1017.15
2017-08-06T09:00:12.203Z,1017.15
2017-08-06T09:01:12.191Z,1017.24
2017-08-06T09:02:12.186Z,1017.25
2017-08-06T09:03:12.187Z,1017.22
2017-08-06T09:04:12.161Z,1017.25
2017-08-06T09:05:12.151Z,1017.28
2017-08-06T09:06:12.140Z,1017.25
2017-08-06T09:07:12.138Z,1017.2
2017-08-06T09:08:12.120Z,1017.21
2017-08-06T09:09:12.112Z,1017.3
2017-08-06T09:10:12.102Z,1017.27
2017-08-06T09:11:12.305Z,1017.31
2017-08-06T09:12:12.082Z,1017.25
2017-08-06T09:13:12.139Z,1017.22
2017-08-06T09:14:12.067Z,1017.29
2017-08-06T09:15:12.056Z,1017.22
2017-08-06T09:16:12.047Z,1017.2
2017-08-06T09:17:12.038Z,1017.2
2017-08-06T09:18:12.026Z,1017.2
2017-08-06T09:19:12.019Z,1017.21
2017-08-06T09:20:12.011Z,1017.2
2017-08-06T09:21:11.997Z,1017.2
2017-08-06T09:22:11.986Z,1017.17
2017-08-06T09:23:11.973Z,1017.14
2017-08-06T09:24:11.965Z,1017.22
2017-08-06T09:25:11.954Z,1017.14
2017-08-06T09:26:11.943Z,1017.19
2017-08-06T09:27:11.934Z,1017.15
2017-08-06T09:28:11.919Z,1017.2
2017-08-06T09:29:11.912Z,1017.16
2017-08-06T09:30:11.896Z,1017.24
2017-08-06T09:31:11.893Z,1017.21
2017-08-06T09:32:11.877Z,1017.14
2017-08-06T09:33:11.863Z,1017.14
2017-08-06T09:34:11.872Z,1017.16
2017-08-06T09:35:11.840Z,1017.19
2017-08-06T09:36:11.829Z,1017.15
2017-08-06T09:37:11.818Z,1017.16
2017-08-06T09:38:11.808Z,1017.15
2017-08-06T09:39:11.797Z,1017.13
2017-08-06T09:40:11.798Z,1017.15
2017-08-06T09:41:11.775Z,1017.14
2017-08-06T09:42:11.768Z,1017.14
2017-08-06T09:43:11.756Z,1017.17
2017-08-06T09:44:11.743Z,1017.22
2017-08-06T09:45:11.734Z,1017.21
2017-08-06T09:46:11.721Z,1017.15
2017-08-06T09:47:11.714Z,1017.17
2017-08-06T09:48:11.702Z,1017.13
2017-08-06T09:49:11.739Z,1017.14
2017-08-06T09:50:11.684Z,1017.19
2017-08-06T09:51:11.671Z,1017.24
2017-08-06T09:52:11.658Z,1017.21
2017-08-06T09:53:11.651Z,1017.13
2017-08-06T09:54:11.641Z,1017.18
2017-08-06T09:55:11.633Z,1017.19
2017-08-06T09:56:11.625Z,1017.14
2017-08-06T09:57:11.615Z,1017.11
2017-08-06T09:58:11.610Z,1017.11
2017-08-06T09:59:11.650Z,1017.13
2017-08-06T10:00:11.585Z,1017.13
2017-08-06T10:01:11.576Z,1017.13
2017-08-06T10:02:11.567Z,1017.14
2017-08-06T10:03:11.555Z,1017.13
2017-08-06T10:04:11.544Z,1017.13
2017-08-06T10:05:11.535Z,1017.1
2017-08-06T10:06:11.524Z,1017.1
2017-08-06T10:07:11.521Z,1017.09
2017-08-06T10:08:11.502Z,1017.1
2017-08-06T10:09:11.495Z,1017
2017-08-06T10:10:11.491Z,1017.08
2017-08-06T10:11:11.473Z,1017.05
2017-08-06T10:12:11.469Z,1017.08
2017-08-06T10:13:11.452Z,1017.14
2017-08-06T10:14:11.442Z,1017.17
2017-08-06T10:15:11.432Z,1017.18
2017-08-06T10:16:11.422Z,1017.1
2017-08-06T10:17:11.410Z,1017.08
2017-08-06T10:18:11.401Z,1017.12
2017-08-06T10:19:11.391Z,1017.14
2017-08-06T10:20:11.385Z,1017.22
2017-08-06T10:21:11.372Z,1017.15
2017-08-06T10:22:11.363Z,1017.07
2017-08-06T10:23:11.403Z,1017.09
2017-08-06T10:24:11.345Z,1017.07
2017-08-06T10:25:11.335Z,1017.04
2017-08-06T10:26:11.328Z,1017.09
2017-08-06T10:27:11.317Z,1017.13
2017-08-06T10:28:11.356Z,1017.09
2017-08-06T10:29:11.295Z,1017.12
2017-08-06T10:30:11.287Z,1017.08
2017-08-06T10:31:11.280Z,1017.09
2017-08-06T10:32:11.267Z,1017.12
2017-08-06T10:33:11.253Z,1017.18
2017-08-06T10:34:11.240Z,1017.1
2017-08-06T10:35:11.229Z,1017.18
2017-08-06T10:36:11.222Z,1017.11
2017-08-06T10:37:11.207Z,1017.04
2017-08-06T10:38:11.199Z,1017.03
2017-08-06T10:39:11.186Z,1017.09
2017-08-06T10:40:11.175Z,1016.98
2017-08-06T10:41:11.164Z,1017.03
2017-08-06T10:42:11.160Z,1017.01
2017-08-06T10:43:11.143Z,1017.1
2017-08-06T10:44:11.132Z,1016.98
2017-08-06T10:45:11.118Z,1016.96
2017-08-06T10:46:11.115Z,1017
2017-08-06T10:47:11.098Z,1017
2017-08-06T10:48:11.091Z,1017.07
2017-08-06T10:49:11.078Z,1017.04
2017-08-06T10:50:11.068Z,1017.04
2017-08-06T10:51:11.052Z,1017.01
2017-08-06T10:52:11.045Z,1017.01
2017-08-06T10:53:11.032Z,1016.98
2017-08-06T10:54:11.020Z,1017.02
2017-08-06T10:55:11.013Z,1016.98
2017-08-06T10:56:11.000Z,1016.99
2017-08-06T10:57:10.992Z,1016.97
2017-08-06T10:58:10.985Z,1016.95
2017-08-06T10:59:10.970Z,1016.95
2017-08-06T11:00:10.965Z,1016.9
2017-08-06T11:01:10.950Z,1016.93
2017-08-06T11:02:10.942Z,1016.91
2017-08-06T11:03:10.932Z,1016.98
2017-08-06T11:04:10.922Z,1016.94
2017-08-06T11:05:10.912Z,1016.95
2017-08-06T11:06:10.903Z,1016.92
2017-08-06T11:07:10.943Z,1016.95
2017-08-06T11:08:10.883Z,1016.9
2017-08-06T11:09:10.876Z,1016.9
2017-08-06T11:10:10.859Z,1016.9
2017-08-06T11:11:10.849Z,1016.91
2017-08-06T11:12:10.837Z,1016.87
2017-08-06T11:13:10.826Z,1016.9
2017-08-06T11:14:10.811Z,1016.96
2017-08-06T11:15:10.799Z,1016.91
2017-08-06T11:16:10.786Z,1016.91
2017-08-06T11:17:10.777Z,1016.94
2017-08-06T11:18:10.761Z,1016.9
2017-08-06T11:19:10.749Z,1016.88
2017-08-06T11:20:10.752Z,1016.9
2017-08-06T11:21:10.720Z,1016.83
2017-08-06T11:22:10.707Z,1016.8
2017-08-06T11:23:10.698Z,1016.85
2017-08-06T11:24:10.676Z,1016.85
2017-08-06T11:25:10.667Z,1016.85
2017-08-06T11:26:10.646Z,1016.81
2017-08-06T11:27:10.689Z,1016.82
2017-08-06T11:28:10.618Z,1016.75
2017-08-06T11:29:10.605Z,1016.7
2017-08-06T11:30:10.589Z,1016.71
2017-08-06T11:31:10.573Z,1016.78
2017-08-06T11:32:10.560Z,1016.75
2017-08-06T11:33:10.542Z,1016.79
2017-08-06T11:34:10.529Z,1016.83
2017-08-06T11:35:10.510Z,1016.78
2017-08-06T11:36:10.494Z,1016.79
2017-08-06T11:37:10.480Z,1016.79
2017-08-06T11:38:10.464Z,1016.83
2017-08-06T11:39:10.452Z,1016.77
2017-08-06T11:40:10.434Z,1016.75
2017-08-06T11:41:10.420Z,1016.8
2017-08-06T11:42:10.407Z,1016.8
2017-08-06T11:43:10.390Z,1016.76
2017-08-06T11:44:10.371Z,1016.8
2017-08-06T11:45:10.361Z,1016.79
2017-08-06T11:46:10.339Z,1016.8
2017-08-06T11:47:10.321Z,1016.78
2017-08-06T11:48:10.308Z,1016.71
2017-08-06T11:49:10.292Z,1016.75
2017-08-06T11:50:10.273Z,1016.7
2017-08-06T11:51:10.257Z,1016.75
2017-08-06T11:52:10.245Z,1016.72
2017-08-06T11:53:10.224Z,1016.64
2017-08-06T11:54:10.207Z,1016.67
2017-08-06T11:55:10.190Z,1016.71
2017-08-06T11:56:10.195Z,1016.73
2017-08-06T11:57:10.161Z,1016.7
2017-08-06T11:58:10.146Z,1016.72
2017-08-06T11:59:10.125Z,1016.63
2017-08-06T12:00:10.106Z,1016.71
2017-08-06T12:01:10.090Z,1016.7
2017-08-06T12:02:10.074Z,1016.72
2017-08-06T12:03:10.061Z,1016.71
2017-08-06T12:04:10.045Z,1016.71
2017-08-06T12:05:10.025Z,1016.74
2017-08-06T12:06:10.009Z,1016.72
2017-08-06T12:07:10.001Z,1016.69
2017-08-06T12:08:09.976Z,1016.65
2017-08-06T12:09:09.959Z,1016.62
2017-08-06T12:10:09.945Z,1016.65